Time;durP1;ratioP1;P1;durP2;ratioP2;P2;SDS_P1;SDS_P2;PMS_P1;PMS_P2;Temp;Humidity;BMP_temperature;BMP_pressure;BME280_temperature;BME280_humidity;BME280_pressure;Samples;Min_cycle;Max_cycle;Signal;HPM_P1;HPM_P2
2024/02/09 00:01:36;;;;;;;6.53;2.40;;;;;;;18.85;46.40;98667.22;4980667;28;20031;-69
2024/02/09 00:04:02;;;;;;;6.53;2.35;;;;;;;18.74;46.20;98640.41;4979305;28;20036;-68
2024/02/09 00:06:27;;;;;;;7.43;2.83;;;;;;;18.76;46.34;98649.00;4979917;28;20027;-68
2024/02/09 00:08:52;;;;;;;7.63;2.88;;;;;;;18.70;46.15;98641.81;4979537;28;20037;-69
2024/02/09 00:11:18;;;;;;;9.77;3.25;;;;;;;18.80;46.57;98650.25;4979935;28;20078;-67
2024/02/09 00:13:43;;;;;;;7.78;2.95;;;;;;;18.77;46.41;98640.91;4979327;28;20475;-69
2024/02/09 00:16:09;;;;;;;7.82;3.80;;;;;;;18.77;46.11;98648.81;4979845;28;20126;-69
2024/02/09 00:18:34;;;;;;;7.57;3.78;;;;;;;18.76;46.42;98641.09;4980280;28;20034;-69
2024/02/09 00:21:00;;;;;;;8.75;3.35;;;;;;;18.75;46.40;98628.88;4980544;28;20090;-69
2024/02/09 00:23:27;;;;;;;7.10;2.97;;;;;;;18.63;46.55;98608.22;4980437;28;20471;-68
2024/02/09 00:25:53;;;;;;;8.02;3.30;;;;;;;18.59;46.33;98593.75;4980243;28;20035;-68
2024/02/09 00:28:18;;;;;;;7.20;3.35;;;;;;;18.61;46.55;98594.41;4980261;28;20046;-68
2024/02/09 00:30:43;;;;;;;6.53;2.97;;;;;;;18.70;46.45;98603.03;4980233;28;20039;-68
2024/02/09 00:33:09;;;;;;;5.43;2.78;;;;;;;18.60;46.49;98586.69;4980316;28;20027;-68
2024/02/09 00:35:35;;;;;;;8.65;3.17;;;;;;;18.66;46.44;98599.16;4978835;28;20126;-68
2024/02/09 00:38:02;;;;;;;8.25;3.00;;;;;;;18.71;46.42;98603.84;4980158;28;20030;-68
2024/02/09 00:40:31;;;;;;;7.18;3.03;;;;;;;18.55;46.30;98576.66;4979799;28;20774;-69
2024/02/09 00:42:56;;;;;;;6.60;2.45;;;;;;;18.54;46.57;98569.75;4980362;28;20030;-69
2024/02/09 00:45:23;;;;;;;10.00;3.40;;;;;;;18.55;46.39;98568.75;4980420;28;20364;-69
2024/02/09 00:47:49;;;;;;;6.75;2.80;;;;;;;18.65;46.26;98581.66;4978392;28;20121;-67
2024/02/09 00:50:18;;;;;;;8.25;2.97;;;;;;;18.64;46.46;98580.03;4978773;28;20093;-68
2024/02/09 00:52:48;;;;;;;6.05;2.42;;;;;;;18.54;46.48;98561.03;4978422;28;20042;-68
2024/02/09 00:55:14;;;;;;;9.48;2.88;;;;;;;18.65;46.39;98582.47;4969920;28;20035;-67
2024/02/09 00:57:40;;;;;;;7.35;3.25;;;;;;;18.63;46.60;98573.13;4978502;28;21060;-68
2024/02/09 01:00:09;;;;;;;10.27;3.00;;;;;;;18.58;46.62;98559.63;4977226;28;20038;-68
2024/02/09 01:02:34;;;;;;;6.55;2.70;;;;;;;18.50;46.60;98544.75;4979350;28;20484;-68
2024/02/09 01:05:00;;;;;;;6.95;2.80;;;;;;;18.56;46.74;98551.91;4979680;28;20042;-68
2024/02/09 01:07:26;;;;;;;7.78;3.25;;;;;;;18.58;46.52;98547.28;4979665;28;20133;-68
2024/02/09 01:09:51;;;;;;;9.43;3.55;;;;;;;18.58;46.42;98549.94;4980088;28;20035;-68
2024/02/09 02:45:02;;;;;;;7.35;2.30;;;;;;;18.34;46.92;98406.00;4977945;28;20038;-68
2024/02/09 02:47:27;;;;;;;7.50;2.75;;;;;;;18.30;46.66;98400.25;4977220;28;20408;-68
2024/02/09 03:06:16;;;;;;;6.57;2.45;;;;;;;18.25;46.91;98375.47;4977133;28;20525;-68
2024/02/09 03:08:42;;;;;;;7.35;2.13;;;;;;;18.15;46.84;98362.56;4976240;28;20030;-68
2024/02/09 03:11:08;;;;;;;6.28;1.92;;;;;;;18.21;47.04;98382.09;4977334;28;20031;-68
2024/02/09 03:13:34;;;;;;;6.53;2.10;;;;;;;18.26;46.95;98377.91;4967441;28;20062;-68
2024/02/09 03:16:00;;;;;;;5.88;1.90;;;;;;;18.17;47.00;98357.13;4977003;28;20073;-68
2024/02/09 03:18:26;;;;;;;6.18;2.05;;;;;;;18.24;47.01;98369.34;4975822;28;20035;-68
2024/02/09 03:20:55;;;;;;;4.43;1.55;;;;;;;18.14;46.91;98350.38;4976402;28;20120;-68
2024/02/09 03:23:20;;;;;;;6.47;2.38;;;;;;;18.26;46.92;98363.91;4977300;28;20027;-69
2024/02/09 03:25:45;;;;;;;6.40;1.70;;;;;;;18.22;47.00;98360.81;4977652;28;20027;-68
2024/02/09 03:28:11;;;;;;;5.90;1.90;;;;;;;18.11;46.74;98343.66;4977554;28;20035;-68
2024/02/09 03:30:36;;;;;;;6.38;2.10;;;;;;;18.16;46.74;98352.84;4977256;28;20039;-68
2024/02/09 03:33:01;;;;;;;5.55;1.92;;;;;;;18.23;46.91;98357.19;4976463;28;20053;-68
2024/02/09 03:35:28;;;;;;;5.97;2.20;;;;;;;18.16;46.82;98340.47;4976940;28;20565;-68
2024/02/09 03:37:54;;;;;;;6.95;1.85;;;;;;;18.09;47.05;98329.06;4976446;28;20499;-68
2024/02/09 03:40:19;;;;;;;5.57;2.30;;;;;;;18.12;47.19;98333.94;4976834;28;20030;-68
2024/02/09 03:42:44;;;;;;;4.82;1.70;;;;;;;18.12;46.83;98329.47;4976699;28;20034;-68
2024/02/09 03:45:10;;;;;;;6.97;1.90;;;;;;;18.11;47.15;98321.75;4976607;28;20511;-68
2024/02/09 03:47:35;;;;;;;5.13;2.00;;;;;;;18.12;47.11;98326.84;4976459;28;20464;-68
2024/02/09 03:50:01;;;;;;;6.35;1.98;;;;;;;18.23;46.84;98335.25;4977169;28;20447;-67
2024/02/09 03:52:27;;;;;;;5.32;2.33;;;;;;;18.15;47.06;98325.69;4977294;28;20030;-68
2024/02/09 03:54:54;;;;;;;6.43;1.90;;;;;;;18.22;47.00;98342.38;4976843;28;20038;-67
2024/02/09 03:57:24;;;;;;;5.68;1.83;;;;;;;18.11;47.09;98319.94;4976844;28;20455;-68
2024/02/09 03:59:50;;;;;;;5.72;1.60;;;;;;;18.23;47.00;98346.66;4976824;28;20030;-68
2024/02/09 04:02:16;;;;;;;6.22;1.65;;;;;;;18.23;46.82;98348.44;4976321;28;20031;-68
2024/02/09 04:04:42;;;;;;;4.50;1.50;;;;;;;18.11;46.94;98317.28;4977257;28;20054;-67
2024/02/09 04:07:10;;;;;;;4.07;1.60;;;;;;;18.10;46.96;98315.69;4977060;28;20387;-67
2024/02/09 04:09:37;;;;;;;4.10;1.60;;;;;;;18.15;46.78;98316.94;4977721;28;20475;-68
2024/02/09 04:12:03;;;;;;;4.50;1.67;;;;;;;18.13;46.85;98320.59;4980590;28;20035;-67
2024/02/09 04:14:28;;;;;;;5.47;1.88;;;;;;;18.22;46.93;98336.28;4980090;28;20539;-67
2024/02/09 04:16:55;;;;;;;5.45;1.50;;;;;;;18.17;46.95;98325.50;4980014;28;20442;-67
2024/02/09 04:19:21;;;;;;;5.68;2.05;;;;;;;18.17;46.86;98322.84;4980622;28;20030;-67
2024/02/09 04:21:49;;;;;;;3.95;1.60;;;;;;;18.17;46.89;98323.66;4980543;28;20109;-68
2024/02/09 04:24:25;;;;;;;3.28;1.40;;;;;;;18.07;46.98;98309.94;4980167;28;20034;-68
2024/02/09 04:26:51;;;;;;;4.43;1.60;;;;;;;18.21;47.09;98332.00;4979884;28;20036;-68
2024/02/09 04:29:21;;;;;;;4.15;1.40;;;;;;;18.09;47.00;98313.22;4980046;28;20092;-68
2024/02/09 04:31:47;;;;;;;4.18;1.60;;;;;;;18.09;47.01;98307.97;4979879;28;20473;-67
2024/02/09 04:34:13;;;;;;;4.10;1.50;;;;;;;18.04;47.04;98297.97;4979555;28;20133;-68
2024/02/09 04:36:40;;;;;;;4.68;1.70;;;;;;;18.04;47.00;98297.97;4979664;28;20117;-68
2024/02/09 04:39:10;;;;;;;3.45;1.40;;;;;;;18.16;47.12;98327.28;4979073;28;20035;-68
2024/02/09 04:41:41;;;;;;;6.32;1.70;;;;;;;18.08;47.02;98308.94;4993957;28;20038;-68
2024/02/09 04:44:06;;;;;;;4.03;1.60;;;;;;;18.06;47.20;98303.06;4979733;28;20034;-68
2024/02/09 04:46:32;;;;;;;3.70;1.38;;;;;;;18.03;47.04;98300.78;4979531;28;20487;-68
2024/02/09 04:49:02;;;;;;;3.85;1.33;;;;;;;18.17;47.16;98312.31;4979439;28;20471;-67
2024/02/09 04:51:33;;;;;;;3.78;1.60;;;;;;;18.02;47.14;98286.78;4979857;28;20059;-68
2024/02/09 04:53:59;;;;;;;4.18;1.30;;;;;;;18.16;47.12;98308.84;4979485;28;20041;-68
2024/02/09 04:56:26;;;;;;;4.30;1.38;;;;;;;18.17;46.97;98312.31;4979705;28;20030;-67
2024/02/09 04:58:52;;;;;;;4.55;1.40;;;;;;;18.00;47.23;98285.34;4980165;28;20098;-68
2024/02/09 05:01:28;;;;;;;3.65;1.52;;;;;;;18.04;47.10;98287.44;4980094;28;20033;-68
2024/02/09 05:03:57;;;;;;;3.85;1.17;;;;;;;18.14;46.92;98295.03;4979369;28;20034;-68
2024/02/09 05:06:24;;;;;;;3.35;1.20;;;;;;;18.01;47.05;98277.25;4979788;28;20038;-68
2024/02/09 05:08:49;;;;;;;4.32;1.27;;;;;;;18.10;46.86;98293.75;4979383;28;20034;-68
2024/02/09 05:11:14;;;;;;;3.80;1.50;;;;;;;18.01;47.00;98285.16;4979343;28;20035;-67
2024/02/09 05:13:41;;;;;;;4.50;1.30;;;;;;;18.10;47.17;98299.88;4979543;28;20105;-67
2024/02/09 05:16:08;;;;;;;3.65;1.48;;;;;;;17.97;47.03;98272.53;4979381;28;20045;-68
2024/02/09 05:18:34;;;;;;;4.22;1.20;;;;;;;18.10;47.13;98291.13;4979423;28;20057;-67
2024/02/09 05:20:59;;;;;;;4.75;1.35;;;;;;;18.00;47.20;98275.63;4978223;28;20030;-67
2024/02/09 05:23:24;;;;;;;4.10;1.40;;;;;;;18.10;47.09;98296.41;4979377;28;20133;-68
2024/02/09 05:25:50;;;;;;;3.78;1.30;;;;;;;18.03;46.83;98280.53;4978074;28;20035;-67
2024/02/09 05:28:15;;;;;;;3.22;1.30;;;;;;;18.10;47.15;98286.69;4979295;28;20117;-67
2024/02/09 05:30:40;;;;;;;4.97;1.40;;;;;;;18.09;47.03;98284.25;4979039;28;20069;-67
2024/02/09 05:33:06;;;;;;;4.47;1.20;;;;;;;17.98;47.11;98251.28;4978845;28;20480;-67
2024/02/09 05:35:31;;;;;;;4.10;1.40;;;;;;;18.00;47.00;98265.06;4977445;28;20035;-67
2024/02/09 05:37:56;;;;;;;3.00;1.20;;;;;;;18.09;47.11;98273.69;4977832;28;20034;-67
2024/02/09 05:40:21;;;;;;;4.63;1.30;;;;;;;18.07;47.27;98273.03;4978295;28;20036;-68
2024/02/09 05:42:47;;;;;;;3.03;1.20;;;;;;;18.04;47.05;98263.72;4978633;28;20030;-68
2024/02/09 05:45:13;;;;;;;2.97;1.25;;;;;;;18.06;47.05;98269.59;4978473;28;20035;-67
2024/02/09 05:47:38;;;;;;;3.70;1.30;;;;;;;17.96;47.23;98255.94;4977752;28;20431;-67
2024/02/09 05:50:04;;;;;;;3.15;1.20;;;;;;;17.94;47.00;98244.72;4978393;28;20075;-68
2024/02/09 05:52:29;;;;;;;4.68;1.20;;;;;;;17.94;47.04;98244.72;4978502;28;21230;-67
2024/02/09 05:54:55;;;;;;;3.75;1.02;;;;;;;18.09;47.23;98276.34;4978583;28;20114;-67
2024/02/09 05:57:20;;;;;;;3.20;1.20;;;;;;;18.07;46.95;98268.63;4978529;28;20731;-68
2024/02/09 05:59:46;;;;;;;3.63;1.25;;;;;;;18.07;47.03;98273.88;4978780;28;20034;-67
2024/02/09 06:02:11;;;;;;;4.40;1.20;;;;;;;18.04;46.86;98262.88;4977467;28;20043;-68
2024/02/09 06:04:37;;;;;;;2.60;1.00;;;;;;;17.92;47.18;98246.75;4978157;28;20861;-67
2024/02/09 06:07:03;;;;;;;3.45;1.10;;;;;;;18.04;46.97;98265.50;4978122;28;20387;-67
2024/02/09 06:09:31;;;;;;;3.30;1.08;;;;;;;18.06;46.92;98266.16;4977792;28;20035;-67
2024/02/09 06:11:57;;;;;;;3.80;1.20;;;;;;;17.89;46.93;98236.56;4977701;28;20043;-67
2024/02/09 06:14:23;;;;;;;2.92;1.10;;;;;;;18.04;46.90;98263.72;4977798;28;20125;-67
2024/02/09 06:16:48;;;;;;;3.88;1.35;;;;;;;18.00;46.93;98259.81;4978089;28;20121;-67
2024/02/09 06:19:13;;;;;;;3.20;1.20;;;;;;;18.04;46.83;98257.59;4977729;28;20108;-68
2024/02/09 06:21:40;;;;;;;1.70;0.80;;;;;;;18.05;46.58;98260.06;4978123;28;20030;-68
2024/02/09 06:24:06;;;;;;;2.28;0.90;;;;;;;17.99;46.75;98249.44;4978245;28;20113;-67
2024/02/09 06:26:31;;;;;;;4.25;1.20;;;;;;;18.12;46.75;98262.78;4978457;28;20455;-68
2024/02/09 06:28:56;;;;;;;2.70;1.00;;;;;;;18.07;46.82;98251.97;4978564;28;20046;-67
2024/02/09 06:31:25;;;;;;;3.60;0.90;;;;;;;18.19;46.82;98265.47;4978586;28;20030;-68
2024/02/09 06:33:52;;;;;;;2.15;0.90;;;;;;;18.20;46.71;98267.94;4977814;28;20038;-68
2024/02/09 06:36:21;;;;;;;2.80;0.82;;;;;;;18.14;46.61;98258.13;4978079;28;20054;-67
2024/02/09 06:38:48;;;;;;;1.40;0.80;;;;;;;18.11;46.86;98240.06;4977796;28;20023;-68
2024/02/09 06:41:13;;;;;;;3.28;1.10;;;;;;;18.23;46.51;98270.19;4978355;28;20030;-68
2024/02/09 06:43:39;;;;;;;2.60;0.90;;;;;;;18.26;46.96;98269.00;4978110;28;20031;-68
2024/02/09 06:46:04;;;;;;;2.92;0.90;;;;;;;18.30;46.85;98262.34;4978008;28;20038;-68
2024/02/09 06:48:30;;;;;;;3.13;1.20;;;;;;;18.30;46.64;98251.81;4977797;28;20034;-68
2024/02/09 06:50:58;;;;;;;3.38;1.08;;;;;;;18.31;46.90;98259.53;4977374;28;20097;-68
2024/02/09 06:53:24;;;;;;;3.00;0.80;;;;;;;18.37;46.75;98262.41;4977464;28;20483;-68
2024/02/09 06:55:52;;;;;;;3.20;1.30;;;;;;;18.27;47.04;98239.00;4978043;28;20035;-68
2024/02/09 06:58:18;;;;;;;3.75;1.20;;;;;;;18.22;47.00;98238.75;4977507;28;20026;-68
2024/02/09 07:00:44;;;;;;;3.05;1.13;;;;;;;18.40;46.91;98267.31;4977119;28;20039;-67
2024/02/09 07:03:15;;;;;;;3.17;0.90;;;;;;;18.39;46.62;98260.38;4976590;28;20045;-67
2024/02/09 07:05:41;;;;;;;3.13;0.95;;;;;;;18.43;47.03;98270.38;4977243;28;20116;-68
2024/02/09 07:08:07;;;;;;;2.70;1.00;;;;;;;18.38;46.57;98258.78;4977481;28;20077;-68
2024/02/09 07:10:33;;;;;;;2.60;1.02;;;;;;;18.41;46.91;98263.69;4976054;28;20599;-67
2024/02/09 07:12:59;;;;;;;3.97;1.00;;;;;;;18.33;46.55;98251.44;4977400;28;20038;-67
2024/02/09 07:15:24;;;;;;;3.80;1.10;;;;;;;18.45;46.67;98270.19;4977158;28;20030;-68
2024/02/09 07:17:50;;;;;;;2.25;1.10;;;;;;;18.34;46.59;98247.78;4977403;28;20066;-67
2024/02/09 07:20:17;;;;;;;2.88;0.85;;;;;;;18.46;46.59;98264.72;4977680;28;20034;-67
2024/02/09 07:22:43;;;;;;;1.52;0.70;;;;;;;18.34;46.68;98242.53;4977340;28;20117;-68
2024/02/09 07:25:08;;;;;;;2.83;0.93;;;;;;;18.48;46.50;98270.66;4977318;28;20117;-68
2024/02/09 07:27:34;;;;;;;3.67;1.00;;;;;;;18.44;46.64;98256.19;4977984;28;20070;-67
2024/02/09 07:29:59;;;;;;;2.17;0.82;;;;;;;18.46;46.98;98267.34;4977273;28;20027;-67
2024/02/09 07:32:25;;;;;;;2.60;0.90;;;;;;;18.37;46.63;98257.94;4977430;28;20030;-68
2024/02/09 07:34:52;;;;;;;3.60;1.02;;;;;;;18.46;46.64;98270.00;4977041;28;20034;-68
2024/02/09 07:37:18;;;;;;;2.45;0.98;;;;;;;18.46;46.63;98272.63;4977166;28;20037;-67
2024/02/09 07:39:43;;;;;;;2.38;0.70;;;;;;;18.45;46.84;98267.53;4976841;28;20042;-68
2024/02/09 07:42:09;;;;;;;3.63;1.15;;;;;;;18.37;46.51;98257.94;4977513;28;20452;-67
2024/02/09 07:44:36;;;;;;;3.08;1.42;;;;;;;18.44;46.67;98269.38;4976568;28;20403;-68
2024/02/09 07:47:04;;;;;;;2.38;0.90;;;;;;;18.49;46.32;98277.53;4981149;28;20503;-68
2024/02/09 07:49:31;;;;;;;1.65;0.80;;;;;;;18.48;46.67;98275.91;4980882;28;20054;-68
2024/02/09 07:51:58;;;;;;;2.83;0.90;;;;;;;18.39;46.69;98271.78;4981189;28;20035;-68
2024/02/09 07:54:24;;;;;;;2.88;0.77;;;;;;;18.49;46.71;98288.09;4980992;28;20038;-67
2024/02/09 07:56:49;;;;;;;1.85;0.90;;;;;;;18.49;46.48;98287.28;4981109;28;20042;-67
2024/02/09 07:59:14;;;;;;;5.07;1.20;;;;;;;18.46;46.29;98279.75;4979356;28;20049;-67
2024/02/09 08:01:40;;;;;;;3.70;1.20;;;;;;;18.37;46.70;98275.59;4980559;28;20033;-67
2024/02/09 08:04:05;;;;;;;2.53;0.85;;;;;;;18.34;46.28;98270.69;4979188;28;20041;-68
2024/02/09 08:06:33;;;;;;;2.28;1.08;;;;;;;18.47;46.42;98284.03;4979699;28;20031;-68
2024/02/09 08:08:59;;;;;;;2.58;0.90;;;;;;;18.47;46.48;98289.28;4980168;28;20030;-68
2024/02/09 08:11:26;;;;;;;1.95;0.82;;;;;;;18.48;46.21;98291.75;4980349;28;20035;-67
2024/02/09 08:13:51;;;;;;;2.95;1.27;;;;;;;18.27;46.49;98258.25;4979869;28;20086;-68
2024/02/09 08:16:20;;;;;;;2.25;0.98;;;;;;;18.44;46.65;98287.84;4980256;28;20034;-68
2024/02/09 08:18:46;;;;;;;3.17;1.17;;;;;;;18.45;46.45;98289.47;4980164;28;20035;-68
2024/02/09 08:21:12;;;;;;;2.53;0.70;;;;;;;18.44;46.36;98290.47;4980624;28;20495;-68
2024/02/09 08:23:39;;;;;;;3.20;1.20;;;;;;;18.48;46.78;98293.53;4980239;28;20066;-68
2024/02/09 08:26:04;;;;;;;2.83;0.95;;;;;;;18.46;46.92;98287.66;4979946;28;20042;-68
2024/02/09 08:28:29;;;;;;;3.90;1.20;;;;;;;18.49;46.74;98298.63;4980244;28;20031;-68
2024/02/09 08:30:54;;;;;;;5.47;1.27;;;;;;;18.24;46.86;98253.34;4979877;28;20031;-68
2024/02/09 08:33:20;;;;;;;3.77;0.93;;;;;;;18.38;46.95;98275.41;4979669;28;20078;-67
2024/02/09 08:35:45;;;;;;;4.07;1.38;;;;;;;18.44;47.06;98282.56;4978766;28;20644;-68
2024/02/09 08:38:10;;;;;;;3.17;0.90;;;;;;;18.32;47.10;98260.34;4980607;28;20033;-68
2024/02/09 08:40:36;;;;;;;3.42;1.05;;;;;;;18.49;47.03;98285.44;4979749;28;20279;-64
2024/02/09 08:43:01;;;;;;;3.38;1.20;;;;;;;18.36;47.32;98260.75;4980005;28;20034;-67
2024/02/09 08:45:27;;;;;;;3.78;1.20;;;;;;;18.43;47.08;98278.28;4979788;28;20444;-68
2024/02/09 08:47:53;;;;;;;3.63;1.10;;;;;;;18.46;47.26;98283.19;4980284;28;20463;-69
2024/02/09 08:50:18;;;;;;;4.60;1.20;;;;;;;18.47;47.60;98290.09;4979509;28;20056;-70
2024/02/09 08:52:44;;;;;;;3.05;0.98;;;;;;;18.50;47.37;98296.84;4979859;28;20031;-69
2024/02/09 08:55:10;;;;;;;3.22;1.40;;;;;;;18.36;47.60;98273.94;4979374;28;20031;-70
2024/02/09 08:57:35;;;;;;;2.55;1.00;;;;;;;18.51;47.50;98297.63;4978906;28;20524;-70
2024/02/09 09:00:01;;;;;;;3.17;1.17;;;;;;;18.39;47.62;98276.22;4979185;28;20027;-69
2024/02/09 09:02:26;;;;;;;3.22;1.00;;;;;;;18.49;47.87;98298.63;4978616;28;20047;-68
2024/02/09 09:04:52;;;;;;;2.50;0.90;;;;;;;18.51;48.10;98295.00;4979112;28;20082;-68
2024/02/09 09:07:17;;;;;;;6.07;0.90;;;;;;;18.52;48.06;98305.38;4979927;28;20034;-69
2024/02/09 09:09:42;;;;;;;3.60;1.10;;;;;;;18.42;47.98;98273.19;4969974;28;20034;-69
2024/02/09 09:12:09;;;;;;;2.83;0.95;;;;;;;18.44;48.19;98285.19;4979822;28;20122;-70
2024/02/09 09:14:36;;;;;;;2.67;1.02;;;;;;;18.52;48.12;98297.44;4979141;28;20034;-68
2024/02/09 09:17:01;;;;;;;3.13;0.98;;;;;;;18.51;48.22;98295.81;4979478;28;20034;-68
2024/02/09 09:19:27;;;;;;;5.35;1.10;;;;;;;18.51;48.36;98290.53;4978060;28;20038;-70
2024/02/09 09:21:52;;;;;;;3.55;0.90;;;;;;;18.54;48.55;98292.00;4979543;28;20030;-67
2024/02/09 09:24:17;;;;;;;3.03;1.00;;;;;;;18.54;48.32;98300.72;4979510;28;20479;-69
2024/02/09 09:26:43;;;;;;;4.20;1.00;;;;;;;18.43;48.31;98275.66;4978368;28;20038;-70
2024/02/09 09:29:08;;;;;;;3.60;0.98;;;;;;;18.43;48.31;98277.47;4979123;28;20039;-71
2024/02/09 09:31:34;;;;;;;3.97;1.00;;;;;;;18.43;48.50;98280.91;4979390;28;20033;-70
2024/02/09 09:33:59;;;;;;;4.45;1.02;;;;;;;18.54;48.42;98305.19;4978722;28;20034;-70
2024/02/09 09:36:31;;;;;;;3.75;1.10;;;;;;;18.46;48.53;98291.09;4979188;28;20073;-68
2024/02/09 09:39:02;;;;;;;2.38;0.80;;;;;;;18.52;48.30;98301.88;4977199;28;20462;-70
2024/02/09 09:41:27;;;;;;;5.15;1.10;;;;;;;18.57;48.40;98302.97;4979164;28;20026;-68
2024/02/09 09:43:52;;;;;;;2.28;0.90;;;;;;;18.44;48.21;98285.19;4978963;28;20418;-69
2024/02/09 09:46:21;;;;;;;2.58;0.90;;;;;;;18.49;48.25;98289.91;4979132;28;20038;-70
2024/02/09 09:48:51;;;;;;;4.65;1.20;;;;;;;18.42;48.27;98296.94;4979040;28;20034;-68
2024/02/09 09:51:19;;;;;;;4.32;1.10;;;;;;;18.43;48.00;98288.03;4979155;28;20042;-70
2024/02/09 09:53:50;;;;;;;3.97;1.13;;;;;;;18.43;47.87;98288.84;4978386;28;20097;-68
2024/02/09 09:56:18;;;;;;;4.60;1.48;;;;;;;18.54;47.86;98305.19;4978854;28;20026;-69
2024/02/09 09:58:45;;;;;;;3.25;0.95;;;;;;;18.52;48.14;98308.00;4978661;28;20030;-68
2024/02/09 10:01:11;;;;;;;3.72;1.00;;;;;;;18.52;47.75;98304.53;4978806;28;20037;-68
2024/02/09 10:03:38;;;;;;;3.65;1.00;;;;;;;18.43;48.06;98293.28;4977755;28;20031;-69
2024/02/09 10:06:04;;;;;;;4.13;1.10;;;;;;;18.49;48.10;98308.38;4978644;28;20064;-70
2024/02/09 10:08:31;;;;;;;3.20;0.95;;;;;;;18.54;48.07;98324.44;4978173;28;20063;-70
2024/02/09 10:10:56;;;;;;;3.13;1.00;;;;;;;18.54;47.89;98321.00;4978239;28;20027;-68
2024/02/09 10:13:23;;;;;;;2.88;1.00;;;;;;;18.43;48.32;98299.38;4978257;28;20035;-70
2024/02/09 10:15:50;;;;;;;3.33;1.08;;;;;;;18.43;48.08;98304.66;4975982;28;20388;-70
2024/02/09 10:18:16;;;;;;;6.20;1.05;;;;;;;18.49;48.33;98329.47;4976123;28;20094;-69
2024/02/09 10:20:45;;;;;;;5.70;1.25;;;;;;;18.53;48.44;98332.53;4976919;28;20077;-68
2024/02/09 10:23:10;;;;;;;2.97;1.23;;;;;;;18.53;48.43;98330.72;4977259;28;20034;-69
2024/02/09 10:25:41;;;;;;;4.93;1.20;;;;;;;18.43;48.34;98312.56;4976199;28;20030;-68
2024/02/09 10:28:07;;;;;;;3.20;1.42;;;;;;;18.42;48.60;98313.59;4977755;28;20089;-68
2024/02/09 10:30:32;;;;;;;5.07;1.20;;;;;;;18.55;48.83;98328.72;4977568;28;20431;-69
2024/02/09 10:32:58;;;;;;;4.82;1.05;;;;;;;18.49;48.53;98324.19;4977441;28;20026;-69
2024/02/09 10:35:23;;;;;;;4.03;1.40;;;;;;;18.55;48.46;98328.72;4976349;28;20038;-67
2024/02/09 10:37:51;;;;;;;5.53;1.20;;;;;;;18.57;48.48;98337.25;4977501;28;20026;-67
2024/02/09 10:40:18;;;;;;;3.50;1.20;;;;;;;18.45;48.59;98318.50;4976889;28;20061;-67
2024/02/09 10:42:46;;;;;;;4.57;1.15;;;;;;;18.55;48.86;98334.00;4977198;28;20502;-69
2024/02/09 10:45:12;;;;;;;7.57;1.50;;;;;;;18.63;48.75;98346.25;4976798;28;20031;-68
2024/02/09 10:47:39;;;;;;;8.43;2.33;;;;;;;18.64;49.45;98337.31;4976952;28;20069;-69
2024/02/09 10:50:06;;;;;;;7.95;1.80;;;;;;;18.65;50.12;98338.97;4976885;28;20372;-69
2024/02/09 10:52:42;;;;;;;7.45;2.38;;;;;;;18.71;50.18;98346.13;4977341;28;20535;-69
2024/02/09 10:55:09;;;;;;;6.70;2.17;;;;;;;18.68;50.19;98347.31;4976983;28;20026;-69
2024/02/09 10:57:35;;;;;;;8.68;2.15;;;;;;;18.71;50.36;98353.19;4977800;28;20475;-68
2024/02/09 11:00:04;;;;;;;5.68;2.42;;;;;;;18.59;50.32;98340.50;4977429;28;20031;-72
2024/02/09 11:02:30;;;;;;;6.88;1.70;;;;;;;18.65;50.33;98347.69;4976199;28;20041;-69
2024/02/09 11:04:58;;;;;;;8.05;2.00;;;;;;;18.72;50.14;98352.22;4976973;28;20039;-66
2024/02/09 11:07:25;;;;;;;6.97;2.00;;;;;;;18.75;50.20;98357.91;4976971;28;20038;-67
2024/02/09 11:09:50;;;;;;;6.22;1.80;;;;;;;18.75;50.55;98352.63;4977373;28;20038;-69
2024/02/09 11:12:19;;;;;;;7.28;2.00;;;;;;;18.62;50.32;98334.06;4976787;28;20084;-68
2024/02/09 11:14:45;;;;;;;5.40;1.90;;;;;;;18.79;50.58;98359.19;4976729;28;20046;-67
2024/02/09 11:17:14;;;;;;;6.07;1.73;;;;;;;18.63;50.68;98328.59;4976823;28;20030;-67
2024/02/09 11:19:41;;;;;;;5.75;1.88;;;;;;;18.75;50.62;98355.28;4976192;28;20104;-67
2024/02/09 11:22:07;;;;;;;5.40;1.73;;;;;;;18.81;50.38;98361.63;4976998;28;20109;-69
2024/02/09 11:24:36;;;;;;;6.13;1.55;;;;;;;18.65;50.70;98342.41;4977672;28;20495;-68
2024/02/09 11:27:02;;;;;;;5.35;2.10;;;;;;;18.68;50.52;98347.31;4976971;28;20022;-69
2024/02/09 11:29:28;;;;;;;5.45;1.60;;;;;;;18.79;50.37;98361.81;4975153;28;20031;-69
2024/02/09 11:31:56;;;;;;;7.18;1.85;;;;;;;18.81;50.19;98359.81;4976466;28;20395;-68
2024/02/09 11:34:24;;;;;;;5.00;1.65;;;;;;;18.78;50.52;98365.47;4976552;28;20061;-69
2024/02/09 11:36:50;;;;;;;7.40;1.92;;;;;;;18.68;50.27;98354.41;4975615;28;20619;-69
2024/02/09 11:39:22;;;;;;;8.35;1.60;;;;;;;18.76;50.60;98359.56;4976540;28;20054;-67
2024/02/09 11:41:48;;;;;;;5.95;1.60;;;;;;;18.74;50.45;98360.75;4976262;28;20076;-69
2024/02/09 11:44:14;;;;;;;4.53;1.63;;;;;;;18.68;50.39;98354.41;4977226;28;20038;-69
2024/02/09 11:46:41;;;;;;;4.82;1.40;;;;;;;18.73;50.16;98359.94;4977330;28;20035;-68
2024/02/09 11:49:07;;;;;;;4.93;1.30;;;;;;;18.77;49.98;98358.56;4976160;28;20069;-67
2024/02/09 11:51:33;;;;;;;6.88;1.45;;;;;;;18.73;49.94;98351.22;4977393;28;20065;-67
2024/02/09 11:53:59;;;;;;;5.90;1.20;;;;;;;18.66;50.17;98344.03;4975584;28;20056;-68
2024/02/09 11:56:25;;;;;;;4.72;1.67;;;;;;;18.77;50.15;98358.56;4977280;28;20049;-68
2024/02/09 11:58:51;;;;;;;4.72;1.55;;;;;;;18.77;50.25;98363.00;4977117;28;20034;-69
2024/02/09 12:01:18;;;;;;;4.85;1.92;;;;;;;18.70;50.16;98354.22;4977139;28;20045;-67
2024/02/09 12:03:44;;;;;;;3.65;1.30;;;;;;;18.69;50.48;98345.47;4973021;28;20038;-69
2024/02/09 12:06:10;;;;;;;10.15;1.80;;;;;;;18.81;50.53;98361.63;4975102;28;20041;-68
2024/02/09 12:08:36;;;;;;;4.70;1.20;;;;;;;18.78;50.89;98357.53;4974958;28;20137;-71
2024/02/09 12:11:01;;;;;;;4.43;1.55;;;;;;;18.76;50.75;98356.13;4973727;28;20166;-67
2024/02/09 12:13:28;;;;;;;6.80;1.95;;;;;;;18.77;50.71;98360.38;4974331;28;20034;-68
2024/02/09 12:15:54;;;;;;;8.30;1.75;;;;;;;18.63;50.88;98338.34;4974872;28;20423;-68
2024/02/09 12:18:22;;;;;;;4.53;1.48;;;;;;;18.64;50.75;98337.31;4975115;28;20582;-68
2024/02/09 12:20:48;;;;;;;6.15;1.23;;;;;;;18.79;50.63;98361.81;4975090;28;20586;-68
2024/02/09 12:23:13;;;;;;;6.47;1.65;;;;;;;18.73;50.88;98354.66;4975599;28;20424;-67
2024/02/09 12:25:40;;;;;;;6.03;1.50;;;;;;;18.76;50.88;98356.13;4974685;28;20026;-68
2024/02/09 12:28:18;;;;;;;5.53;1.63;;;;;;;18.78;50.71;98360.19;4974959;28;20035;-68
2024/02/09 12:30:45;;;;;;;4.95;1.35;;;;;;;18.62;50.83;98334.06;4976173;28;20038;-68
2024/02/09 12:33:11;;;;;;;3.97;1.38;;;;;;;18.61;50.92;98324.50;4978558;28;20062;-68
2024/02/09 12:35:37;;;;;;;4.47;1.52;;;;;;;18.78;51.00;98348.81;4978677;28;20043;-69
2024/02/09 12:38:03;;;;;;;4.18;1.20;;;;;;;18.74;50.82;98356.31;4979197;28;20092;-68
2024/02/09 12:40:29;;;;;;;5.60;1.40;;;;;;;18.77;50.59;98358.56;4979115;28;20039;-68
2024/02/09 12:42:55;;;;;;;5.32;1.25;;;;;;;18.65;50.44;98344.25;4978460;28;20035;-68
2024/02/09 12:45:26;;;;;;;7.22;1.40;;;;;;;18.63;50.48;98339.16;4978941;28;20038;-68
2024/02/09 12:47:52;;;;;;;3.65;1.25;;;;;;;18.69;50.24;98348.13;4979079;28;20085;-68
2024/02/09 12:50:20;;;;;;;5.85;1.70;;;;;;;18.70;50.50;98348.94;4979241;28;20058;-68
2024/02/09 12:52:49;;;;;;;5.85;1.40;;;;;;;18.83;50.51;98372.81;4979346;28;20037;-68
2024/02/09 12:55:17;;;;;;;4.80;1.20;;;;;;;18.78;50.60;98362.81;4979507;28;20034;-68
2024/02/09 12:57:42;;;;;;;5.57;1.40;;;;;;;18.80;50.59;98362.63;4979406;28;20117;-68
2024/02/09 13:00:08;;;;;;;5.28;1.42;;;;;;;18.84;50.74;98379.75;4980009;28;20449;-69
2024/02/09 13:02:34;;;;;;;4.72;1.38;;;;;;;18.68;50.80;98341.22;4978524;28;20038;-68
2024/02/09 13:05:00;;;;;;;3.72;1.15;;;;;;;18.73;50.62;98351.22;4978762;28;20073;-68
2024/02/09 13:07:27;;;;;;;3.05;1.23;;;;;;;18.71;50.73;98345.28;4978939;28;20042;-68
2024/02/09 13:09:55;;;;;;;3.65;1.00;;;;;;;18.82;50.82;98365.91;4979230;28;20026;-67
2024/02/09 13:12:21;;;;;;;3.85;1.20;;;;;;;18.68;50.88;98341.22;4979502;28;20061;-67
2024/02/09 13:14:47;;;;;;;4.50;1.35;;;;;;;18.70;50.90;98354.22;4979240;28;20132;-67
2024/02/09 13:17:12;;;;;;;5.57;1.33;;;;;;;18.72;51.01;98350.38;4979504;28;20564;-67
2024/02/09 13:19:37;;;;;;;6.07;1.13;;;;;;;18.79;51.01;98372.38;4979252;28;20034;-68